Time;durP1;ratioP1;P1;durP2;ratioP2;P2;SDS_P1;SDS_P2;PMS_P1;PMS_P2;Temp;Humidity;BMP_temperature;BMP_pressure;BME280_temperature;BME280_humidity;BME280_pressure;Samples;Min_cycle;Max_cycle;Signal;HPM_P1;HPM_P2
2021/06/10 00:00:45;;;;;;;;;;;27.20;30.90;;;;;;4972561;28;75868;-70
2021/06/10 00:03:10;;;;;;;;;;;27.20;30.70;;;;;;4971396;28;76624;-67
2021/06/10 00:05:36;;;;;;;;;;;27.20;30.60;;;;;;4972315;28;74544;-68
2021/06/10 00:08:02;;;;;;;;;;;27.10;31.10;;;;;;4972514;28;74518;-68
2021/06/10 00:10:28;;;;;;;;;;;27.00;31.30;;;;;;4970640;28;77454;-67
2021/06/10 00:12:54;;;;;;;;;;;27.00;31.70;;;;;;4972369;28;75262;-68
2021/06/10 00:15:21;;;;;;;;;;;27.00;31.70;;;;;;4970510;28;77928;-68
2021/06/10 00:17:47;;;;;;;;;;;27.00;32.40;;;;;;4972325;28;75106;-65
2021/06/10 00:20:15;;;;;;;;;;;26.90;32.50;;;;;;4971298;28;75483;-64
2021/06/10 00:22:40;;;;;;;;;;;26.90;32.90;;;;;;4970564;28;74560;-64
2021/06/10 00:25:07;;;;;;;;;;;26.90;33.70;;;;;;4972159;28;75077;-64
2021/06/10 00:27:32;;;;;;;;;;;26.80;33.40;;;;;;4970276;28;76177;-62
2021/06/10 00:29:58;;;;;;;;;;;26.80;33.60;;;;;;4971906;28;75417;-64
2021/06/10 00:32:23;;;;;;;;;;;26.70;34.50;;;;;;4970722;28;75717;-64
2021/06/10 00:34:49;;;;;;;;;;;26.70;35.10;;;;;;4970416;28;76739;-65
2021/06/10 00:37:15;;;;;;;;;;;26.70;34.60;;;;;;4972060;28;75397;-65
2021/06/10 00:39:41;;;;;;;;;;;26.60;34.50;;;;;;4971675;28;74993;-64
2021/06/10 00:42:07;;;;;;;;;;;26.60;34.50;;;;;;4971908;28;74568;-64
2021/06/10 00:44:33;;;;;;;;;;;26.50;35.70;;;;;;4970361;28;75288;-65
2021/06/10 00:46:59;;;;;;;;;;;26.50;35.10;;;;;;4969947;28;74771;-63
2021/06/10 00:49:24;;;;;;;;;;;26.50;36.00;;;;;;4972411;28;74384;-65
2021/06/10 00:51:50;;;;;;;;;;;26.40;36.00;;;;;;4970231;28;77377;-64
2021/06/10 00:54:16;;;;;;;;;;;26.40;35.90;;;;;;4971905;28;74467;-64
2021/06/10 00:56:41;;;;;;;;;;;26.40;35.80;;;;;;4971663;28;75111;-64
2021/06/10 00:59:07;;;;;;;;;;;26.40;35.20;;;;;;4927488;28;828915;-68
2021/06/10 01:01:33;;;;;;;;;;;26.30;37.00;;;;;;4971923;28;75429;-65
2021/06/10 01:03:58;;;;;;;;;;;26.30;36.20;;;;;;4971212;28;75856;-64
2021/06/10 01:06:26;;;;;;;;;;;26.30;36.80;;;;;;4972945;28;75067;-68
2021/06/10 01:08:56;;;;;;;;;;;26.20;36.30;;;;;;4972633;28;75249;-64
2021/06/10 01:11:37;;;;;;;;;;;26.20;37.20;;;;;;4971344;28;76648;-63
2021/06/10 01:14:02;;;;;;;;;;;26.20;37.50;;;;;;4972329;28;76257;-64
2021/06/10 01:16:29;;;;;;;;;;;26.10;37.80;;;;;;4972920;28;75389;-64
2021/06/10 01:18:56;;;;;;;;;;;26.10;38.40;;;;;;4973217;28;76398;-63
2021/06/10 01:21:23;;;;;;;;;;;26.00;38.20;;;;;;4972724;28;75036;-69
2021/06/10 01:23:48;;;;;;;;;;;26.00;38.80;;;;;;4971673;28;78761;-66
2021/06/10 01:26:33;;;;;;;;;;;25.90;38.20;;;;;;4972732;28;74434;-67
2021/06/10 01:29:00;;;;;;;;;;;25.90;38.10;;;;;;4972628;28;75252;-74
2021/06/10 01:31:26;;;;;;;;;;;25.90;38.30;;;;;;4970946;28;76834;-73
2021/06/10 01:33:52;;;;;;;;;;;25.90;39.20;;;;;;4972222;28;75898;-73
2021/06/10 01:36:22;;;;;;;;;;;25.90;39.80;;;;;;4972287;28;76538;-72
2021/06/10 01:38:49;;;;;;;;;;;25.80;40.40;;;;;;4972551;28;75253;-68
2021/06/10 01:41:17;;;;;;;;;;;25.70;39.80;;;;;;4972435;28;75430;-70
2021/06/10 01:43:43;;;;;;;;;;;25.60;39.80;;;;;;4971881;28;74669;-72
2021/06/10 01:46:11;;;;;;;;;;;25.60;40.00;;;;;;4972487;28;75341;-72
2021/06/10 01:48:37;;;;;;;;;;;25.60;39.80;;;;;;4970876;28;75601;-73
2021/06/10 01:51:03;;;;;;;;;;;25.60;40.00;;;;;;4971102;28;78567;-73
2021/06/10 01:53:29;;;;;;;;;;;25.50;40.00;;;;;;4972701;28;75848;-73
2021/06/10 01:55:57;;;;;;;;;;;25.50;40.40;;;;;;4971593;28;78005;-69
2021/06/10 01:58:23;;;;;;;;;;;25.50;40.40;;;;;;4970352;28;77896;-70
2021/06/10 02:00:50;;;;;;;;;;;25.50;40.10;;;;;;4970542;28;77797;-69
2021/06/10 02:03:17;;;;;;;;;;;25.40;40.30;;;;;;4972399;28;74529;-64
2021/06/10 02:05:43;;;;;;;;;;;25.40;40.40;;;;;;4972021;28;75505;-69
2021/06/10 02:08:09;;;;;;;;;;;25.40;40.90;;;;;;4972472;28;74448;-69
2021/06/10 02:10:35;;;;;;;;;;;25.40;40.80;;;;;;4970678;28;75249;-72
2021/06/10 02:13:01;;;;;;;;;;;25.30;41.10;;;;;;4975212;28;74530;-71
2021/06/10 02:15:28;;;;;;;;;;;25.30;41.20;;;;;;4975703;28;75406;-70
2021/06/10 02:17:53;;;;;;;;;;;25.30;40.90;;;;;;4975493;28;75259;-69
2021/06/10 02:20:20;;;;;;;;;;;25.30;41.20;;;;;;4975542;28;75229;-70
2021/06/10 02:22:46;;;;;;;;;;;25.20;41.50;;;;;;4973566;28;76488;-72
2021/06/10 02:25:12;;;;;;;;;;;25.20;41.50;;;;;;4975310;28;75435;-70
2021/06/10 02:27:38;;;;;;;;;;;25.20;41.70;;;;;;4975364;28;74686;-72
2021/06/10 02:30:05;;;;;;;;;;;25.20;41.40;;;;;;4975651;28;74425;-66
2021/06/10 02:32:30;;;;;;;;;;;25.20;41.80;;;;;;4975411;28;75845;-73
2021/06/10 02:34:56;;;;;;;;;;;25.10;41.80;;;;;;4975321;28;75119;-64
2021/06/10 02:37:22;;;;;;;;;;;25.00;41.80;;;;;;4975017;28;76121;-64
2021/06/10 02:39:49;;;;;;;;;;;25.00;42.00;;;;;;4973446;28;77512;-66
2021/06/10 02:42:15;;;;;;;;;;;25.00;41.70;;;;;;4975038;28;74796;-64
2021/06/10 02:44:44;;;;;;;;;;;25.00;41.80;;;;;;4974655;28;76508;-62
2021/06/10 02:47:10;;;;;;;;;;;25.00;41.80;;;;;;4974886;28;75305;-64
2021/06/10 02:49:37;;;;;;;;;;;25.00;42.00;;;;;;4975132;28;75689;-65
2021/06/10 02:52:06;;;;;;;;;;;24.90;42.10;;;;;;4974790;28;75859;-64
2021/06/10 02:54:32;;;;;;;;;;;24.90;42.20;;;;;;4973384;28;74526;-63
2021/06/10 02:56:58;;;;;;;;;;;24.90;42.70;;;;;;4974472;28;75003;-67
2021/06/10 02:59:24;;;;;;;;;;;24.90;42.40;;;;;;4973288;28;74768;-64
2021/06/10 03:01:50;;;;;;;;;;;24.80;43.10;;;;;;4974861;28;74881;-63
2021/06/10 03:04:16;;;;;;;;;;;24.80;42.30;;;;;;4974998;28;74974;-63
2021/06/10 03:06:43;;;;;;;;;;;24.80;42.80;;;;;;4973470;28;76080;-63
2021/06/10 03:09:08;;;;;;;;;;;24.70;42.70;;;;;;4973035;28;78506;-64
2021/06/10 03:11:36;;;;;;;;;;;24.70;42.80;;;;;;4973495;28;75990;-68
2021/06/10 03:14:02;;;;;;;;;;;24.70;42.80;;;;;;4974161;28;75167;-64
2021/06/10 03:16:28;;;;;;;;;;;24.70;42.90;;;;;;4974993;28;74438;-67
2021/06/10 03:18:56;;;;;;;;;;;24.70;42.90;;;;;;4973123;28;77703;-67
2021/06/10 03:21:23;;;;;;;;;;;24.60;43.50;;;;;;4974480;28;75246;-68
2021/06/10 03:23:49;;;;;;;;;;;24.60;43.70;;;;;;4973416;28;75154;-64
2021/06/10 03:26:15;;;;;;;;;;;24.50;44.10;;;;;;4974406;28;75176;-70
2021/06/10 03:28:41;;;;;;;;;;;24.50;43.60;;;;;;4972662;28;75761;-71
2021/06/10 03:31:07;;;;;;;;;;;24.50;43.40;;;;;;4974382;28;74551;-72
2021/06/10 03:33:33;;;;;;;;;;;24.50;43.70;;;;;;4974202;28;75053;-73
2021/06/10 03:35:59;;;;;;;;;;;24.50;45.20;;;;;;4974305;28;75046;-73
2021/06/10 03:38:25;;;;;;;;;;;24.40;45.50;;;;;;4973060;28;77132;-74
2021/06/10 03:40:53;;;;;;;;;;;24.40;44.50;;;;;;4974301;28;75892;-69
2021/06/10 03:43:18;;;;;;;;;;;24.40;44.40;;;;;;4973734;28;75205;-71
2021/06/10 03:45:44;;;;;;;;;;;24.40;44.40;;;;;;4974196;28;75355;-72
2021/06/10 03:48:10;;;;;;;;;;;24.40;44.10;;;;;;4973885;28;75119;-72
2021/06/10 03:50:37;;;;;;;;;;;24.30;44.70;;;;;;4972702;28;75856;-72
2021/06/10 03:53:05;;;;;;;;;;;24.30;44.40;;;;;;4972988;28;76704;-72
2021/06/10 03:55:31;;;;;;;;;;;24.30;44.40;;;;;;4972369;28;74635;-72
2021/06/10 03:57:56;;;;;;;;;;;24.20;44.90;;;;;;4972024;28;77971;-69
2021/06/10 04:00:22;;;;;;;;;;;24.20;44.90;;;;;;4972287;28;76966;-68
2021/06/10 04:02:48;;;;;;;;;;;24.10;45.30;;;;;;4972355;28;78081;-71
2021/06/10 04:05:14;;;;;;;;;;;24.00;45.70;;;;;;4973655;28;75245;-66
2021/06/10 04:07:39;;;;;;;;;;;24.00;46.00;;;;;;4972391;28;77156;-67
2021/06/10 04:10:05;;;;;;;;;;;24.00;45.70;;;;;;4974165;28;74435;-66
2021/06/10 04:12:31;;;;;;;;;;;23.90;45.60;;;;;;4972283;28;77225;-64
2021/06/10 04:14:56;;;;;;;;;;;24.00;45.50;;;;;;4972383;28;74684;-63
2021/06/10 04:17:22;;;;;;;;;;;23.90;45.60;;;;;;4972451;28;75548;-64
2021/06/10 04:19:48;;;;;;;;;;;23.90;45.90;;;;;;4973788;28;75082;-66
2021/06/10 04:22:13;;;;;;;;;;;23.90;45.70;;;;;;4972617;28;75057;-70
2021/06/10 04:24:39;;;;;;;;;;;23.90;45.40;;;;;;4973412;28;75264;-70
2021/06/10 04:27:05;;;;;;;;;;;23.90;46.20;;;;;;4973953;28;74424;-69
2021/06/10 04:29:31;;;;;;;;;;;23.80;46.20;;;;;;4972974;28;75573;-69
2021/06/10 04:31:57;;;;;;;;;;;23.80;46.20;;;;;;4973476;28;75178;-68
2021/06/10 04:34:22;;;;;;;;;;;23.80;46.20;;;;;;4971841;28;77248;-68
2021/06/10 04:36:48;;;;;;;;;;;23.80;46.20;;;;;;4973809;28;74442;-71
2021/06/10 04:39:13;;;;;;;;;;;23.70;46.50;;;;;;4973321;28;74918;-68
2021/06/10 04:41:39;;;;;;;;;;;23.70;46.50;;;;;;4973138;28;74568;-73
2021/06/10 04:44:05;;;;;;;;;;;23.60;46.70;;;;;;4973193;28;74490;-64
2021/06/10 04:46:32;;;;;;;;;;;23.60;46.70;;;;;;4972974;28;75631;-70
2021/06/10 04:48:59;;;;;;;;;;;23.60;47.20;;;;;;4971528;28;75448;-65
2021/06/10 04:51:25;;;;;;;;;;;23.60;46.90;;;;;;4972991;28;75217;-66
2021/06/10 04:53:53;;;;;;;;;;;23.60;47.10;;;;;;4973786;28;74503;-69
2021/06/10 04:56:19;;;;;;;;;;;23.50;46.80;;;;;;4972315;28;76485;-71
2021/06/10 04:58:45;;;;;;;;;;;23.50;46.90;;;;;;4972509;28;75442;-70
2021/06/10 05:01:11;;;;;;;;;;;23.50;47.30;;;;;;4973061;28;75107;-66
2021/06/10 05:03:36;;;;;;;;;;;23.50;47.00;;;;;;4972707;28;76062;-64
2021/06/10 05:06:02;;;;;;;;;;;23.50;47.30;;;;;;4973110;28;75731;-66
2021/06/10 05:08:28;;;;;;;;;;;23.50;47.20;;;;;;4971704;28;77354;-63
2021/06/10 05:10:53;;;;;;;;;;;23.50;47.50;;;;;;4973034;28;75279;-63
2021/06/10 05:13:19;;;;;;;;;;;23.50;47.40;;;;;;4972827;28;75292;-63
2021/06/10 05:15:45;;;;;;;;;;;23.50;47.40;;;;;;4972725;28;74979;-62
2021/06/10 05:18:10;;;;;;;;;;;23.50;47.50;;;;;;4971392;28;74441;-63
2021/06/10 05:20:36;;;;;;;;;;;23.50;47.50;;;;;;4973325;28;74511;-63
2021/06/10 05:23:02;;;;;;;;;;;23.40;47.60;;;;;;4971405;28;74688;-64
2021/06/10 05:25:27;;;;;;;;;;;23.40;48.90;;;;;;4971247;28;77814;-64
2021/06/10 05:27:53;;;;;;;;;;;23.40;49.40;;;;;;4972487;28;75195;-69
2021/06/10 05:30:19;;;;;;;;;;;23.40;48.90;;;;;;4972840;28;74919;-70
2021/06/10 05:32:44;;;;;;;;;;;23.40;48.60;;;;;;4971493;28;75203;-63
2021/06/10 05:35:10;;;;;;;;;;;23.40;48.40;;;;;;4976446;28;75296;-63
2021/06/10 05:37:36;;;;;;;;;;;23.40;48.40;;;;;;4971680;28;76101;-63
2021/06/10 05:40:02;;;;;;;;;;;23.40;48.20;;;;;;4971383;28;75723;-63
2021/06/10 05:42:28;;;;;;;;;;;23.40;48.50;;;;;;4969846;28;75095;-62
2021/06/10 05:44:53;;;;;;;;;;;23.40;48.60;;;;;;4973702;28;75765;-62
2021/06/10 05:47:19;;;;;;;;;;;23.50;48.50;;;;;;4979355;28;75476;-62
2021/06/10 05:49:46;;;;;;;;;;;23.50;48.40;;;;;;4973239;28;75149;-63
2021/06/10 05:52:11;;;;;;;;;;;23.50;48.40;;;;;;4983050;28;77919;-66
2021/06/10 05:54:37;;;;;;;;;;;23.60;48.30;;;;;;4974286;28;74750;-65
2021/06/10 05:57:03;;;;;;;;;;;23.60;48.50;;;;;;4978886;28;75159;-66
2021/06/10 05:59:28;;;;;;;;;;;23.60;48.30;;;;;;4978844;28;75151;-63
2021/06/10 06:01:54;;;;;;;;;;;23.60;48.60;;;;;;4982770;28;75831;-67
2021/06/10 06:04:19;;;;;;;;;;;23.70;49.00;;;;;;4978005;28;76419;-65
2021/06/10 06:06:46;;;;;;;;;;;23.80;48.90;;;;;;4978077;28;75831;-65
2021/06/10 06:09:11;;;;;;;;;;;23.80;49.00;;;;;;4989394;28;76020;-66
2021/06/10 06:11:37;;;;;;;;;;;23.80;48.60;;;;;;4992558;28;77118;-62
2021/06/10 06:14:07;;;;;;;;;;;23.90;48.70;;;;;;4982879;28;77951;-64
2021/06/10 06:16:34;;;;;;;;;;;23.80;49.20;;;;;;4982411;28;76674;-63
2021/06/10 06:19:01;;;;;;;;;;;23.90;48.90;;;;;;4988639;28;76346;-66
2021/06/10 06:21:27;;;;;;;;;;;23.90;48.80;;;;;;4987172;28;76411;-64
2021/06/10 06:23:53;;;;;;;;;;;23.90;48.80;;;;;;4987993;28;75219;-65
2021/06/10 06:26:20;;;;;;;;;;;23.90;48.70;;;;;;4988836;28;75280;-67
2021/06/10 06:28:45;;;;;;;;;;;23.90;48.90;;;;;;4984885;28;75415;-66
2021/06/10 06:31:11;;;;;;;;;;;24.00;49.10;;;;;;4992005;28;76470;-64
2021/06/10 06:33:37;;;;;;;;;;;24.10;49.10;;;;;;4987847;28;75116;-68
2021/06/10 06:36:03;;;;;;;;;;;24.20;48.80;;;;;;4980558;28;76007;-71
2021/06/10 06:38:28;;;;;;;;;;;24.20;48.80;;;;;;4987029;28;78795;-71
2021/06/10 06:40:54;;;;;;;;;;;24.30;48.50;;;;;;4980925;28;78455;-72
2021/06/10 06:43:20;;;;;;;;;;;24.30;48.50;;;;;;4985668;28;75903;-70
2021/06/10 06:45:45;;;;;;;;;;;24.40;49.10;;;;;;4980953;28;75755;-71
2021/06/10 06:48:13;;;;;;;;;;;24.40;48.50;;;;;;4986211;28;75131;-71
2021/06/10 06:50:39;;;;;;;;;;;24.40;48.40;;;;;;4978937;28;74647;-65
2021/06/10 06:53:05;;;;;;;;;;;24.50;48.30;;;;;;4989255;28;75719;-65
2021/06/10 06:55:30;;;;;;;;;;;24.50;48.00;;;;;;4977739;28;77480;-69
2021/06/10 06:57:56;;;;;;;;;;;24.50;48.40;;;;;;4977659;28;76596;-62
2021/06/10 07:00:24;;;;;;;;;;;24.60;47.90;;;;;;4991701;28;75960;-64
2021/06/10 07:02:49;;;;;;;;;;;24.70;48.30;;;;;;4977409;28;76303;-67
2021/06/10 07:05:15;;;;;;;;;;;24.70;47.80;;;;;;4974501;28;75044;-66
2021/06/10 07:07:41;;;;;;;;;;;24.80;48.20;;;;;;4978684;28;77951;-65
2021/06/10 07:10:07;;;;;;;;;;;24.80;48.00;;;;;;4978523;28;75266;-64
2021/06/10 07:12:33;;;;;;;;;;;24.80;47.70;;;;;;4974801;28;75875;-64
2021/06/10 07:14:59;;;;;;;;;;;24.90;48.00;;;;;;4974066;28;77105;-62
2021/06/10 07:17:25;;;;;;;;;;;24.90;47.80;;;;;;4980784;28;74825;-64
2021/06/10 07:19:52;;;;;;;;;;;24.90;47.90;;;;;;4986396;28;74640;-64
2021/06/10 07:22:18;;;;;;;;;;;24.90;47.80;;;;;;4990013;28;76942;-63
2021/06/10 07:24:46;;;;;;;;;;;25.00;47.70;;;;;;4983564;28;75192;-65
2021/06/10 07:27:18;;;;;;;;;;;25.00;47.40;;;;;;4976889;28;75500;-67
2021/06/10 07:29:45;;;;;;;;;;;25.00;47.30;;;;;;4971869;28;77706;-64
2021/06/10 07:32:11;;;;;;;;;;;25.10;47.40;;;;;;4980073;28;76608;-64
2021/06/10 07:34:39;;;;;;;;;;;25.10;47.40;;;;;;4971519;28;75821;-63
2021/06/10 07:37:06;;;;;;;;;;;25.20;47.30;;;;;;4977954;28;76271;-62
2021/06/10 07:39:33;;;;;;;;;;;25.20;47.10;;;;;;4981248;28;74999;-63
2021/06/10 07:41:59;;;;;;;;;;;25.30;47.10;;;;;;4989672;28;75769;-64
2021/06/10 07:44:25;;;;;;;;;;;25.30;46.90;;;;;;4981701;28;75464;-64
2021/06/10 07:46:50;;;;;;;;;;;25.40;46.80;;;;;;4986052;28;76380;-67
2021/06/10 07:49:16;;;;;;;;;;;25.40;46.70;;;;;;4973009;28;74623;-66
2021/06/10 07:51:42;;;;;;;;;;;25.40;46.80;;;;;;4982968;28;77104;-65
2021/06/10 07:54:07;;;;;;;;;;;25.50;46.60;;;;;;4986049;28;75881;-66
2021/06/10 07:56:33;;;;;;;;;;;25.60;46.20;;;;;;4995321;28;78399;-67
2021/06/10 07:58:58;;;;;;;;;;;25.60;46.20;;;;;;4986707;28;75840;-69
2021/06/10 08:01:24;;;;;;;;;;;25.60;46.10;;;;;;4983521;28;77187;-64
2021/06/10 08:03:50;;;;;;;;;;;25.70;46.30;;;;;;4986934;28;75175;-66
2021/06/10 08:06:15;;;;;;;;;;;25.70;45.90;;;;;;4982001;28;75870;-65
2021/06/10 08:08:41;;;;;;;;;;;25.70;46.00;;;;;;4983866;28;76637;-64
2021/06/10 08:11:09;;;;;;;;;;;25.90;46.10;;;;;;4976030;28;77409;-67
2021/06/10 08:13:35;;;;;;;;;;;25.90;45.60;;;;;;4975741;28;75483;-65
2021/06/10 08:16:01;;;;;;;;;;;26.00;45.20;;;;;;4982638;28;75255;-68
2021/06/10 08:18:28;;;;;;;;;;;26.00;45.00;;;;;;4990486;28;75831;-66
2021/06/10 08:20:54;;;;;;;;;;;26.00;45.10;;;;;;4984814;28;77371;-65
2021/06/10 08:23:20;;;;;;;;;;;26.10;45.00;;;;;;4986713;28;75857;-67
2021/06/10 08:25:46;;;;;;;;;;;26.20;45.00;;;;;;4987762;28;76633;-66
2021/06/10 08:28:13;;;;;;;;;;;26.30;45.00;;;;;;4970332;28;77136;-66
2021/06/10 08:30:39;;;;;;;;;;;26.40;44.80;;;;;;4980525;28;75863;-68
2021/06/10 08:33:05;;;;;;;;;;;26.40;44.40;;;;;;4976050;28;76311;-68
2021/06/10 08:35:30;;;;;;;;;;;26.60;44.40;;;;;;4984175;28;74715;-68
2021/06/10 08:37:58;;;;;;;;;;;26.60;44.50;;;;;;4975875;28;76516;-70
2021/06/10 08:40:23;;;;;;;;;;;26.80;44.10;;;;;;4979640;28;76131;-71
2021/06/10 08:42:49;;;;;;;;;;;26.90;44.00;;;;;;4979067;28;76515;-65
2021/06/10 08:45:17;;;;;;;;;;;26.90;43.50;;;;;;4982576;28;75223;-65
2021/06/10 08:47:43;;;;;;;;;;;27.00;43.40;;;;;;4986504;28;76142;-68
2021/06/10 08:50:12;;;;;;;;;;;27.00;43.50;;;;;;4982188;28;75843;-65
2021/06/10 08:52:37;;;;;;;;;;;27.10;43.30;;;;;;4973016;28;76504;-65
2021/06/10 08:55:03;;;;;;;;;;;27.20;42.90;;;;;;4977711;28;75812;-66
2021/06/10 08:57:30;;;;;;;;;;;27.20;42.70;;;;;;4989301;28;77081;-66
2021/06/10 08:59:56;;;;;;;;;;;27.30;42.60;;;;;;4983516;28;76281;-67
2021/06/10 09:02:21;;;;;;;;;;;27.30;42.60;;;;;;4976635;28;75709;-65
2021/06/10 09:04:47;;;;;;;;;;;27.40;42.70;;;;;;4974982;28;77111;-64
2021/06/10 09:07:13;;;;;;;;;;;27.50;42.30;;;;;;4976101;28;77179;-64
2021/06/10 09:09:40;;;;;;;;;;;27.50;42.20;;;;;;4977390;28;75307;-67
2021/06/10 09:12:08;;;;;;;;;;;27.50;42.00;;;;;;4984632;28;76337;-64
2021/06/10 09:14:52;;;;;;;;;;;27.70;42.20;;;;;;4985556;28;77417;-65
2021/06/10 09:17:27;;;;;;;;;;;27.70;42.10;;;;;;4984683;28;75619;-65
2021/06/10 09:19:53;;;;;;;;;;;27.80;41.70;;;;;;4987012;28;77205;-67
2021/06/10 09:22:19;;;;;;;;;;;27.80;41.60;;;;;;4981381;28;76276;-66
2021/06/10 09:24:45;;;;;;;;;;;27.80;41.80;;;;;;4980048;28;75870;-68
2021/06/10 09:27:10;;;;;;;;;;;27.90;41.80;;;;;;4974680;28;75228;-66
2021/06/10 09:29:38;;;;;;;;;;;28.00;41.80;;;;;;4972351;28;76193;-65
2021/06/10 09:32:08;;;;;;;;;;;28.00;41.40;;;;;;4988182;28;75858;-67
2021/06/10 09:35:04;;;;;;;;;;;28.10;41.00;;;;;;4973017;28;75081;-67
2021/06/10 09:37:33;;;;;;;;;;;28.20;41.20;;;;;;4970542;28;77425;-68
2021/06/10 09:40:00;;;;;;;;;;;28.20;40.50;;;;;;4976456;28;75008;-66
2021/06/10 09:42:30;;;;;;;;;;;28.30;40.60;;;;;;4973839;28;77180;-70
2021/06/10 09:44:59;;;;;;;;;;;28.20;40.40;;;;;;4977449;28;75764;-66
2021/06/10 09:47:32;;;;;;;;;;;28.20;40.30;;;;;;4976969;28;77546;-65
2021/06/10 09:50:10;;;;;;;;;;;28.20;40.30;;;;;;4976841;28;75965;-70
2021/06/10 09:52:44;;;;;;;;;;;28.20;40.40;;;;;;4982508;28;75486;-69
2021/06/10 09:55:24;;;;;;;;;;;28.40;40.50;;;;;;4980986;28;75148;-67
2021/06/10 09:57:50;;;;;;;;;;;28.40;40.10;;;;;;4983933;28;76578;-70
2021/06/10 10:00:15;;;;;;;;;;;28.60;40.20;;;;;;4990070;28;77221;-65
2021/06/10 10:02:46;;;;;;;;;;;28.70;40.40;;;;;;4988311;28;75319;-70
2021/06/10 10:05:12;;;;;;;;;;;28.90;39.60;;;;;;4987998;28;75808;-70
2021/06/10 10:07:38;;;;;;;;;;;28.90;39.90;;;;;;4985043;28;77310;-68
2021/06/10 10:10:05;;;;;;;;;;;29.00;39.60;;;;;;4984330;28;75835;-66
2021/06/10 10:12:31;;;;;;;;;;;29.20;39.80;;;;;;4982871;28;76984;-67
2021/06/10 10:14:58;;;;;;;;;;;29.30;38.10;;;;;;4977888;28;76438;-68
2021/06/10 10:17:25;;;;;;;;;;;29.40;38.50;;;;;;4982984;28;75131;-65
2021/06/10 10:19:51;;;;;;;;;;;29.40;38.10;;;;;;4975134;28;75145;-66
2021/06/10 10:22:16;;;;;;;;;;;29.40;37.80;;;;;;4974667;28;74923;-66
2021/06/10 10:24:42;;;;;;;;;;;29.50;37.60;;;;;;4981594;28;76023;-68
2021/06/10 10:27:11;;;;;;;;;;;29.60;37.20;;;;;;4988935;28;75351;-69
2021/06/10 10:29:38;;;;;;;;;;;29.70;37.20;;;;;;4987829;28;78159;-70
2021/06/10 10:32:05;;;;;;;;;;;29.80;37.50;;;;;;4984865;28;77850;-67
2021/06/10 10:34:32;;;;;;;;;;;29.90;37.40;;;;;;4972147;28;75157;-67
2021/06/10 10:36:59;;;;;;;;;;;30.00;37.70;;;;;;4981113;28;75601;-70
2021/06/10 10:39:32;;;;;;;;;;;30.20;37.00;;;;;;4979509;28;75924;-68
2021/06/10 10:41:59;;;;;;;;;;;30.30;37.20;;;;;;4978593;28;77135;-68
2021/06/10 10:44:26;;;;;;;;;;;30.50;37.00;;;;;;4988182;28;75246;-72
2021/06/10 10:47:08;;;;;;;;;;;30.70;37.30;;;;;;4988919;28;74717;-64
2021/06/10 10:49:42;;;;;;;;;;;30.90;36.30;;;;;;4978771;28;74675;-67
2021/06/10 10:52:13;;;;;;;;;;;31.10;35.50;;;;;;4991311;28;75296;-65
2021/06/10 10:54:39;;;;;;;;;;;31.30;35.10;;;;;;4978690;28;76705;-64
2021/06/10 10:57:05;;;;;;;;;;;31.50;34.20;;;;;;4981827;28;75531;-67
2021/06/10 10:59:41;;;;;;;;;;;31.80;31.30;;;;;;4981105;28;77322;-66
2021/06/10 11:02:07;;;;;;;;;;;31.90;33.00;;;;;;4988198;28;74656;-65
2021/06/10 11:04:52;;;;;;;;;;;32.20;32.50;;;;;;4987069;28;75685;-66
2021/06/10 11:07:32;;;;;;;;;;;32.40;32.20;;;;;;4983670;28;75762;-68
2021/06/10 11:09:59;;;;;;;;;;;32.60;31.90;;;;;;4972831;28;77126;-69
2021/06/10 11:12:40;;;;;;;;;;;33.00;31.30;;;;;;4972147;28;74680;-67
2021/06/10 11:15:06;;;;;;;;;;;33.30;30.40;;;;;;4983481;28;75398;-74
2021/06/10 11:17:42;;;;;;;;;;;33.60;30.20;;;;;;4980591;28;75731;-69
2021/06/10 11:20:10;;;;;;;;;;;34.00;30.60;;;;;;4983897;28;75574;-65
2021/06/10 11:22:39;;;;;;;;;;;34.50;28.00;;;;;;4973224;28;78140;-64
2021/06/10 11:25:16;;;;;;;;;;;34.80;28.40;;;;;;4978468;28;74836;-66
2021/06/10 11:27:46;;;;;;;;;;;35.20;28.10;;;;;;4989364;28;78898;-65
2021/06/10 11:30:18;;;;;;;;;;;35.80;28.10;;;;;;4989912;28;76197;-64
2021/06/10 11:33:13;;;;;;;;;;;36.50;27.80;;;;;;4988946;28;77555;-68
2021/06/10 11:35:45;;;;;;;;;;;37.30;25.80;;;;;;4966353;28;75638;-67
2021/06/10 11:38:22;;;;;;;;;;;38.00;24.30;;;;;;4982113;28;75667;-67
2021/06/10 11:40:49;;;;;;;;;;;38.80;22.60;;;;;;4975468;28;75282;-65
2021/06/10 11:43:16;;;;;;;;;;;39.70;24.30;;;;;;4985509;28;75136;-67
2021/06/10 11:45:42;;;;;;;;;;;40.50;22.30;;;;;;4985057;28;75235;-67
2021/06/10 11:48:08;;;;;;;;;;;41.20;22.40;;;;;;4970135;28;75609;-66
2021/06/10 11:50:47;;;;;;;;;;;42.40;21.20;;;;;;4971781;28;77435;-67
2021/06/10 11:53:19;;;;;;;;;;;43.40;20.30;;;;;;4984678;28;75766;-67
2021/06/10 11:55:46;;;;;;;;;;;44.30;20.00;;;;;;4982596;28;75824;-67
2021/06/10 11:58:13;;;;;;;;;;;45.00;19.00;;;;;;4973884;28;76793;-66
2021/06/10 12:00:42;;;;;;;;;;;45.80;19.20;;;;;;4985035;28;76477;-69
2021/06/10 12:03:10;;;;;;;;;;;46.70;18.70;;;;;;4973045;28;75255;-66
2021/06/10 12:05:44;;;;;;;;;;;47.30;15.80;;;;;;4988703;28;74697;-68
2021/06/10 12:08:11;;;;;;;;;;;47.20;15.80;;;;;;4976184;28;77732;-67
2021/06/10 12:10:37;;;;;;;;;;;46.50;16.00;;;;;;4989089;28;75208;-66
2021/06/10 12:13:03;;;;;;;;;;;47.10;15.80;;;;;;4980654;28;75266;-66
2021/06/10 12:15:33;;;;;;;;;;;47.70;15.20;;;;;;4970580;28;77839;-67
2021/06/10 12:18:03;;;;;;;;;;;48.40;15.80;;;;;;4979891;28;76650;-66
2021/06/10 12:20:30;;;;;;;;;;;49.40;15.90;;;;;;4980839;28;75687;-70
2021/06/10 12:22:56;;;;;;;;;;;49.80;14.40;;;;;;4973770;28;76549;-68
2021/06/10 12:25:25;;;;;;;;;;;49.70;13.80;;;;;;4984220;28;75136;-68
2021/06/10 12:27:55;;;;;;;;;;;49.70;13.40;;;;;;4979275;28;77442;-68
2021/06/10 12:30:20;;;;;;;;;;;49.70;13.80;;;;;;4996281;28;76603;-65
2021/06/10 12:32:46;;;;;;;;;;;50.30;14.80;;;;;;4980385;28;75117;-66
2021/06/10 12:35:12;;;;;;;;;;;51.10;14.70;;;;;;4982819;28;75131;-70
2021/06/10 12:37:37;;;;;;;;;;;51.80;14.10;;;;;;4974094;28;75474;-71
2021/06/10 12:40:03;;;;;;;;;;;52.50;13.90;;;;;;4982782;28;74902;-69
2021/06/10 12:42:29;;;;;;;;;;;53.00;13.30;;;;;;4987751;28;75514;-68
2021/06/10 12:44:54;;;;;;;;;;;53.40;13.30;;;;;;4984265;28;77174;-69
2021/06/10 12:47:30;;;;;;;;;;;53.80;12.70;;;;;;4978696;28;77443;-70
2021/06/10 12:49:56;;;;;;;;;;;54.00;12.90;;;;;;4976464;28;75229;-70
2021/06/10 12:52:26;;;;;;;;;;;54.80;13.40;;;;;;4978229;28;77541;-68
2021/06/10 12:54:59;;;;;;;;;;;55.30;12.80;;;;;;4972438;28;77187;-69
2021/06/10 12:57:25;;;;;;;;;;;55.00;12.60;;;;;;4971053;28;74647;-70
2021/06/10 12:59:52;;;;;;;;;;;54.90;12.80;;;;;;4970174;28;74690;-69
2021/06/10 13:02:18;;;;;;;;;;;55.50;12.20;;;;;;4970342;28;75286;-70
2021/06/10 13:04:48;;;;;;;;;;;55.90;11.20;;;;;;4976962;28;75276;-73
2021/06/10 13:07:33;;;;;;;;;;;55.70;12.00;;;;;;4992139;28;74817;-70
2021/06/10 13:10:21;;;;;;;;;;;55.60;11.60;;;;;;4991261;28;75399;-72
2021/06/10 13:12:50;;;;;;;;;;;55.20;10.60;;;;;;4991052;28;75695;-71
2021/06/10 13:15:17;;;;;;;;;;;55.40;12.20;;;;;;4992715;28;75142;-70
2021/06/10 13:18:03;;;;;;;;;;;55.90;12.10;;;;;;4992510;28;75623;-70
2021/06/10 13:20:41;;;;;;;;;;;56.00;11.50;;;;;;4991664;28;75252;-70
2021/06/10 13:23:08;;;;;;;;;;;56.40;11.70;;;;;;4991037;28;76862;-60
2021/06/10 13:25:33;;;;;;;;;;;56.90;11.20;;;;;;4990973;28;75868;-60
2021/06/10 13:28:19;;;;;;;;;;;57.40;11.70;;;;;;4991778;28;75831;-60
2021/06/10 13:30:46;;;;;;;;;;;57.20;11.10;;;;;;4991508;28;77171;-58
2021/06/10 13:33:17;;;;;;;;;;;56.60;11.10;;;;;;4992450;28;75492;-59
2021/06/10 13:35:44;;;;;;;;;;;57.00;11.60;;;;;;4992333;28;74577;-59
2021/06/10 13:38:10;;;;;;;;;;;57.20;11.30;;;;;;4992617;28;75191;-60
2021/06/10 13:40:36;;;;;;;;;;;56.90;11.50;;;;;;4992387;28;75429;-59
2021/06/10 13:43:02;;;;;;;;;;;56.30;10.10;;;;;;4991934;28;74862;-59
2021/06/10 13:45:30;;;;;;;;;;;56.00;11.10;;;;;;4992272;28;75438;-59
2021/06/10 13:47:56;;;;;;;;;;;55.80;11.10;;;;;;4991988;28;75203;-60
2021/06/10 13:50:22;;;;;;;;;;;55.90;10.70;;;;;;4992340;28;75746;-61
2021/06/10 13:52:48;;;;;;;;;;;55.50;10.80;;;;;;4992066;28;75447;-60
2021/06/10 13:55:13;;;;;;;;;;;55.00;10.90;;;;;;4991910;28;76352;-60
2021/06/10 13:57:39;;;;;;;;;;;54.90;11.00;;;;;;4991983;28;74764;-61
2021/06/10 14:00:05;;;;;;;;;;;55.00;11.30;;;;;;4990444;28;75776;-59
2021/06/10 14:02:31;;;;;;;;;;;55.50;11.40;;;;;;4990455;28;75613;-61
2021/06/10 14:04:56;;;;;;;;;;;56.20;11.60;;;;;;4992021;28;74711;-59
2021/06/10 14:07:22;;;;;;;;;;;56.50;10.70;;;;;;4992889;28;75092;-58
2021/06/10 14:09:47;;;;;;;;;;;55.70;9.90;;;;;;4995792;28;74621;-59
2021/06/10 14:12:13;;;;;;;;;;;54.50;10.10;;;;;;4993571;28;78130;-58
2021/06/10 14:14:39;;;;;;;;;;;53.90;10.80;;;;;;4993508;28;75197;-58
2021/06/10 14:17:05;;;;;;;;;;;54.30;11.30;;;;;;4994002;28;77389;-58